createdAt,value
2023-03-06T00:01:20.684Z,-1.84
2023-03-06T00:04:36.377Z,-1.86
2023-03-06T00:07:18.641Z,-1.89
2023-03-06T00:10:13.983Z,-1.91
2023-03-06T00:13:20.282Z,-1.92
2023-03-06T00:16:19.439Z,-1.92
2023-03-06T00:18:59.544Z,-1.91
2023-03-06T00:21:58.548Z,-1.92
2023-03-06T00:25:14.027Z,-1.91
2023-03-06T00:28:15.668Z,-1.91
2023-03-06T00:30:52.494Z,-1.89
2023-03-06T00:34:05.191Z,-1.87
2023-03-06T00:36:58.394Z,-1.86
2023-03-06T00:39:51.906Z,-1.85
2023-03-06T00:42:34.627Z,-1.84
2023-03-06T00:46:08.888Z,-1.83
2023-03-06T00:49:35.925Z,-1.80
2023-03-06T00:53:23.388Z,-1.78
2023-03-06T00:56:41.982Z,-1.78
2023-03-06T00:59:47.288Z,-1.77
2023-03-06T01:02:44.888Z,-1.76
2023-03-06T01:05:34.234Z,-1.75
2023-03-06T01:08:59.806Z,-1.76
2023-03-06T01:11:53.001Z,-1.77
2023-03-06T01:14:38.984Z,-1.77
2023-03-06T01:21:25.197Z,-1.76
2023-03-06T01:24:48.904Z,-1.77
2023-03-06T01:28:00.096Z,-1.78
2023-03-06T01:30:46.951Z,-1.79
2023-03-06T01:33:38.778Z,-1.78
2023-03-06T01:40:31.876Z,-1.79
2023-03-06T01:43:38.003Z,-1.81
2023-03-06T01:47:19.477Z,-1.82
2023-03-06T01:50:20.733Z,-1.82
2023-03-06T01:53:17.040Z,-1.82
2023-03-06T01:57:11.496Z,-1.81
2023-03-06T01:59:30.692Z,-1.79
2023-03-06T02:02:28.320Z,-1.76
2023-03-06T02:06:01.858Z,-1.74
2023-03-06T02:12:50.867Z,-1.69
2023-03-06T02:16:00.438Z,-1.69
2023-03-06T02:18:58.037Z,-1.69
2023-03-06T02:22:02.473Z,-1.72
2023-03-06T02:25:22.265Z,-1.75
2023-03-06T02:28:44.043Z,-1.75
2023-03-06T02:31:49.235Z,-1.75
2023-03-06T02:35:09.768Z,-1.74
2023-03-06T02:38:06.954Z,-1.74
2023-03-06T02:41:32.116Z,-1.74
2023-03-06T02:44:33.852Z,-1.77
2023-03-06T02:47:17.191Z,-1.76
2023-03-06T02:50:40.940Z,-1.77
2023-03-06T02:53:46.522Z,-1.76
2023-03-06T02:56:54.800Z,-1.78
2023-03-06T03:03:47.397Z,-1.79
2023-03-06T03:06:45.583Z,-1.80
2023-03-06T03:09:40.433Z,-1.80
2023-03-06T03:16:22.413Z,-1.83
2023-03-06T03:19:31.295Z,-1.82
2023-03-06T03:22:44.178Z,-1.79
2023-03-06T03:26:40.703Z,-1.78
2023-03-06T03:29:35.957Z,-1.76
2023-03-06T03:32:35.769Z,-1.75
2023-03-06T03:36:23.897Z,-1.77
2023-03-06T03:39:13.967Z,-1.75
2023-03-06T03:45:48.395Z,-1.73
2023-03-06T03:49:35.418Z,-1.73
2023-03-06T03:52:51.591Z,-1.74
2023-03-06T03:56:15.444Z,-1.74
2023-03-06T03:59:13.579Z,-1.73
2023-03-06T04:06:29.900Z,-1.66
2023-03-06T04:09:28.008Z,-1.63
2023-03-06T04:12:57.888Z,-1.59
2023-03-06T04:15:43.097Z,-1.55
2023-03-06T04:22:42.662Z,-1.43
2023-03-06T04:26:23.151Z,-1.37
2023-03-06T04:30:14.842Z,-1.26
2023-03-06T04:33:25.063Z,-1.17
2023-03-06T04:36:51.848Z,-1.10
2023-03-06T04:42:41.214Z,-0.96
2023-03-06T04:45:18.610Z,-0.90
2023-03-06T04:48:13.324Z,-0.84
2023-03-06T04:51:36.761Z,-0.80
2023-03-06T04:54:35.938Z,-0.76
2023-03-06T05:02:25.801Z,-0.73
2023-03-06T05:05:35.977Z,-0.70
2023-03-06T05:08:44.455Z,-0.69
2023-03-06T05:11:36.280Z,-0.68
2023-03-06T05:18:34.191Z,-0.67
2023-03-06T05:21:14.274Z,-0.67
2023-03-06T05:27:19.216Z,-0.69
2023-03-06T05:33:31.815Z,-0.70
2023-03-06T05:36:36.643Z,-0.71
2023-03-06T05:39:15.589Z,-0.72
2023-03-06T05:42:31.132Z,-0.74
2023-03-06T05:45:32.691Z,-0.74
2023-03-06T05:48:40.157Z,-0.71
2023-03-06T05:51:32.151Z,-0.69
2023-03-06T05:54:04.299Z,-0.70
2023-03-06T05:57:08.092Z,-0.67
2023-03-06T06:00:23.917Z,-0.64
2023-03-06T06:03:49.013Z,-0.59
2023-03-06T06:07:19.238Z,-0.54
2023-03-06T06:09:47.062Z,-0.52
2023-03-06T06:12:32.022Z,-0.53
2023-03-06T06:15:15.303Z,-0.53
2023-03-06T06:17:56.600Z,-0.53
2023-03-06T06:20:42.626Z,-0.51
2023-03-06T06:23:26.173Z,-0.49
2023-03-06T06:26:22.423Z,-0.48
2023-03-06T06:29:00.104Z,-0.46
2023-03-06T06:31:51.231Z,-0.45
2023-03-06T06:34:29.122Z,-0.45
2023-03-06T06:37:12.922Z,-0.45
2023-03-06T06:41:04.695Z,-0.47
2023-03-06T06:47:26.097Z,-0.49
2023-03-06T06:49:56.495Z,-0.48
2023-03-06T06:52:25.056Z,-0.45
2023-03-06T06:55:17.379Z,-0.44
2023-03-06T06:57:59.136Z,-0.42
2023-03-06T07:00:34.836Z,-0.37
2023-03-06T07:03:41.793Z,-0.37
2023-03-06T07:06:18.687Z,-0.35
2023-03-06T07:08:46.761Z,-0.34
2023-03-06T07:11:19.254Z,-0.35
2023-03-06T07:13:47.703Z,-0.35
2023-03-06T07:16:19.054Z,-0.35
2023-03-06T07:18:49.002Z,-0.35
2023-03-06T07:21:20.246Z,-0.34
2023-03-06T07:23:56.766Z,-0.31
2023-03-06T07:26:34.840Z,-0.29
2023-03-06T07:29:09.213Z,-0.27
2023-03-06T07:31:55.050Z,-0.27
2023-03-06T07:34:31.716Z,-0.27
2023-03-06T07:37:18.341Z,-0.28
2023-03-06T07:40:04.746Z,-0.27
2023-03-06T07:42:38.863Z,-0.24
2023-03-06T07:45:19.229Z,-0.21
2023-03-06T07:47:53.668Z,-0.21
2023-03-06T07:50:24.328Z,-0.20
2023-03-06T07:53:02.659Z,-0.18
2023-03-06T07:55:38.567Z,-0.19
2023-03-06T07:58:45.935Z,-0.21
2023-03-06T08:01:23.775Z,-0.22
2023-03-06T08:03:58.410Z,-0.21
2023-03-06T08:06:39.775Z,-0.17
2023-03-06T08:09:20.198Z,-0.11
2023-03-06T08:11:57.976Z,-0.08
2023-03-06T08:14:51.141Z,-0.06
2023-03-06T08:17:38.705Z,-0.08
2023-03-06T08:20:24.296Z,-0.08
2023-03-06T08:22:52.423Z,-0.04
2023-03-06T08:25:37.039Z,0.01
2023-03-06T08:28:15.897Z,0.06
2023-03-06T08:30:55.412Z,0.12
2023-03-06T08:33:41.246Z,0.17
2023-03-06T08:36:18.347Z,0.20
2023-03-06T08:39:06.760Z,0.23
2023-03-06T08:42:03.222Z,0.25
2023-03-06T08:44:41.391Z,0.30
2023-03-06T08:47:14.656Z,0.32
2023-03-06T08:50:07.863Z,0.32
2023-03-06T08:52:57.966Z,0.37
2023-03-06T08:58:34.456Z,0.44
2023-03-06T09:01:25.174Z,0.47
2023-03-06T09:04:18.383Z,0.48
2023-03-06T09:07:46.942Z,0.48
2023-03-06T09:10:22.669Z,0.47
2023-03-06T09:13:07.550Z,0.49
2023-03-06T09:16:23.593Z,0.52
2023-03-06T09:18:59.943Z,0.52
2023-03-06T09:21:40.958Z,0.53
2023-03-06T09:24:17.256Z,0.57
2023-03-06T09:26:52.157Z,0.58
2023-03-06T09:29:26.276Z,0.59
2023-03-06T09:32:12.119Z,0.62
2023-03-06T09:35:04.087Z,0.63
2023-03-06T09:37:51.753Z,0.74
2023-03-06T09:40:39.608Z,0.80
2023-03-06T09:43:23.619Z,0.78
2023-03-06T09:46:29.263Z,0.82
2023-03-06T09:49:56.598Z,0.88
2023-03-06T09:53:09.239Z,0.87
2023-03-06T09:55:46.059Z,0.93
2023-03-06T09:58:27.300Z,0.96
2023-03-06T10:01:22.208Z,0.99
2023-03-06T10:04:07.113Z,1.01
2023-03-06T10:06:54.719Z,1.02
2023-03-06T10:10:09.900Z,1.08
2023-03-06T10:13:06.808Z,1.12
2023-03-06T10:15:46.488Z,1.18
2023-03-06T10:18:24.523Z,1.29
2023-03-06T10:21:18.627Z,1.36
2023-03-06T10:24:05.505Z,1.40
2023-03-06T10:27:13.951Z,1.40
2023-03-06T10:30:03.994Z,1.42
2023-03-06T10:33:07.623Z,1.45
2023-03-06T10:36:48.057Z,1.44
2023-03-06T10:39:36.947Z,1.50
2023-03-06T10:42:21.536Z,1.53
2023-03-06T10:45:23.994Z,1.56
2023-03-06T10:48:54.209Z,1.50
2023-03-06T10:51:36.729Z,1.41
2023-03-06T10:54:17.793Z,1.41
2023-03-06T10:56:55.750Z,1.37
2023-03-06T10:59:57.395Z,1.32
2023-03-06T11:02:43.766Z,1.35
2023-03-06T11:05:25.003Z,1.35
2023-03-06T11:08:01.692Z,1.42
2023-03-06T11:10:36.991Z,1.50
2023-03-06T11:13:28.958Z,1.56
2023-03-06T11:16:19.770Z,1.65
2023-03-06T11:19:19.006Z,1.61
2023-03-06T11:22:27.877Z,1.59
2023-03-06T11:25:49.978Z,1.53
2023-03-06T11:29:16.063Z,1.56
2023-03-06T11:31:59.299Z,1.59
2023-03-06T11:34:50.954Z,1.55
2023-03-06T11:38:44.508Z,1.57
2023-03-06T11:42:05.295Z,1.58
2023-03-06T11:45:21.781Z,1.18
2023-03-06T11:48:17.884Z,0.80
2023-03-06T11:51:15.282Z,0.70
2023-03-06T11:54:35.087Z,0.50
2023-03-06T11:57:29.075Z,0.38
2023-03-06T12:00:31.014Z,0.36
2023-03-06T12:03:33.719Z,0.44
2023-03-06T12:06:13.596Z,0.50
2023-03-06T12:09:46.648Z,0.52
2023-03-06T12:12:44.664Z,0.49
2023-03-06T12:15:52.337Z,0.48
2023-03-06T12:18:56.478Z,0.45
2023-03-06T12:22:17.071Z,0.35
2023-03-06T12:25:26.016Z,0.29
2023-03-06T12:28:23.966Z,0.25
2023-03-06T12:31:30.291Z,0.23
2023-03-06T12:34:41.481Z,0.25
2023-03-06T12:37:33.204Z,0.23
2023-03-06T12:40:57.157Z,0.31
2023-03-06T12:44:03.849Z,0.38
2023-03-06T12:47:01.360Z,0.36
2023-03-06T12:49:38.323Z,0.35
2023-03-06T12:52:18.747Z,0.39
2023-03-06T12:55:01.389Z,0.41
2023-03-06T12:57:48.186Z,0.45
2023-03-06T13:01:50.883Z,0.39
2023-03-06T13:05:33.800Z,0.43
2023-03-06T13:08:36.936Z,0.41
2023-03-06T13:11:35.649Z,0.42
2023-03-06T13:17:47.154Z,0.56
2023-03-06T13:20:54.989Z,0.58
2023-03-06T13:23:53.366Z,0.58
2023-03-06T13:26:50.236Z,0.54
2023-03-06T13:29:38.051Z,0.46
2023-03-06T13:32:37.104Z,0.43
2023-03-06T13:35:47.353Z,0.40
2023-03-06T13:38:36.819Z,0.37
2023-03-06T13:42:01.800Z,0.31
2023-03-06T13:44:46.228Z,0.23
2023-03-06T13:50:48.877Z,0.05
2023-03-06T13:54:15.742Z,-0.05
2023-03-06T13:56:59.398Z,-0.20
2023-03-06T14:00:09.258Z,-0.33
2023-03-06T14:03:11.039Z,-0.43
2023-03-06T14:06:12.527Z,-0.55
2023-03-06T14:09:40.989Z,-0.63
2023-03-06T14:12:24.089Z,-0.74
2023-03-06T14:15:26.368Z,-0.79
2023-03-06T14:18:46.197Z,-0.77
2023-03-06T14:21:55.984Z,-0.79
2023-03-06T14:24:47.249Z,-0.90
2023-03-06T14:27:44.591Z,-0.98
2023-03-06T14:30:23.673Z,-1.03
2023-03-06T14:35:59.868Z,-1.02
2023-03-06T14:38:36.398Z,-1.05
2023-03-06T14:45:22.149Z,-0.96
2023-03-06T14:48:16.730Z,-0.92
2023-03-06T14:50:57.256Z,-0.93
2023-03-06T14:53:34.818Z,-0.91
2023-03-06T14:56:28.852Z,-0.93
2023-03-06T14:59:18.846Z,-0.94
2023-03-06T15:02:42.566Z,-0.93
2023-03-06T15:05:46.507Z,-0.94
2023-03-06T15:08:30.599Z,-0.92
2023-03-06T15:11:17.837Z,-0.92
2023-03-06T15:14:23.791Z,-0.98
2023-03-06T15:17:35.243Z,-1.02
2023-03-06T15:20:07.674Z,-0.98
2023-03-06T15:22:46.924Z,-0.95
2023-03-06T15:25:40.097Z,-0.94
2023-03-06T15:28:47.588Z,-0.97
2023-03-06T15:33:10.532Z,-1.05
2023-03-06T15:36:21.125Z,-1.11
2023-03-06T15:39:09.610Z,-1.13
2023-03-06T15:42:05.764Z,-1.13
2023-03-06T15:45:42.893Z,-1.13
2023-03-06T15:49:54.740Z,-1.10
2023-03-06T15:52:42.208Z,-1.15
2023-03-06T15:56:26.816Z,-1.16
2023-03-06T15:59:11.512Z,-1.20
2023-03-06T16:02:14.378Z,-1.16
2023-03-06T16:05:18.095Z,-1.16
2023-03-06T16:07:55.445Z,-1.15
2023-03-06T16:10:51.308Z,-1.13
2023-03-06T16:13:36.881Z,-1.07
2023-03-06T16:16:21.918Z,-1.19
2023-03-06T16:19:28.188Z,-1.33
2023-03-06T16:22:03.175Z,-1.47
2023-03-06T16:24:34.264Z,-1.47
2023-03-06T16:27:21.859Z,-1.49
2023-03-06T16:29:59.076Z,-1.55
2023-03-06T16:32:32.726Z,-1.58
2023-03-06T16:35:09.048Z,-1.58
2023-03-06T16:37:45.940Z,-1.57
2023-03-06T16:40:44.280Z,-1.58
2023-03-06T16:43:27.504Z,-1.60
2023-03-06T16:45:56.266Z,-1.63
2023-03-06T16:48:26.972Z,-1.69
2023-03-06T16:51:11.590Z,-1.77
2023-03-06T16:53:44.111Z,-1.84
2023-03-06T16:56:20.813Z,-1.87
2023-03-06T16:59:12.420Z,-1.89
2023-03-06T17:01:51.152Z,-1.90
2023-03-06T17:04:21.699Z,-1.87
2023-03-06T17:06:54.858Z,-1.84
2023-03-06T17:09:32.640Z,-1.81
2023-03-06T17:12:00.023Z,-1.77
2023-03-06T17:14:46.778Z,-1.75
2023-03-06T17:17:18.734Z,-1.73
2023-03-06T17:19:48.947Z,-1.71
2023-03-06T17:22:18.153Z,-1.71
2023-03-06T17:24:52.837Z,-1.72
2023-03-06T17:27:24.912Z,-1.74
2023-03-06T17:30:02.994Z,-1.77
2023-03-06T17:33:09.942Z,-1.80
2023-03-06T17:36:07.513Z,-1.81
2023-03-06T17:40:12.654Z,-1.82
2023-03-06T17:42:31.513Z,-1.83
2023-03-06T17:45:12.061Z,-1.84
2023-03-06T17:48:00.782Z,-1.86
2023-03-06T17:50:33.822Z,-1.86
2023-03-06T17:53:01.024Z,-1.89
2023-03-06T17:55:29.848Z,-1.94
2023-03-06T17:57:57.168Z,-1.96
2023-03-06T18:00:27.047Z,-1.99
2023-03-06T18:02:57.108Z,-2.00
2023-03-06T18:05:25.736Z,-2.01
2023-03-06T18:08:02.237Z,-2.03
2023-03-06T18:10:32.883Z,-2.06
2023-03-06T18:13:14.759Z,-2.10
2023-03-06T18:15:42.866Z,-2.13
2023-03-06T18:18:10.236Z,-2.15
2023-03-06T18:20:49.745Z,-2.14
2023-03-06T18:23:20.292Z,-2.15
2023-03-06T18:25:47.546Z,-2.18
2023-03-06T18:28:26.529Z,-2.16
2023-03-06T18:31:08.269Z,-2.18
2023-03-06T18:33:37.781Z,-2.18
2023-03-06T18:36:06.966Z,-2.21
2023-03-06T18:38:39.388Z,-2.25
2023-03-06T18:41:08.074Z,-2.27
2023-03-06T18:43:36.746Z,-2.31
2023-03-06T18:46:07.442Z,-2.33
2023-03-06T18:48:38.936Z,-2.36
2023-03-06T18:51:09.040Z,-2.38
2023-03-06T18:53:40.100Z,-2.40
2023-03-06T18:56:18.510Z,-2.43
2023-03-06T18:58:52.419Z,-2.46
2023-03-06T19:01:26.742Z,-2.48
2023-03-06T19:03:54.106Z,-2.50
2023-03-06T19:06:22.014Z,-2.52
2023-03-06T19:08:53.352Z,-2.53
2023-03-06T19:11:21.114Z,-2.51
2023-03-06T19:13:52.575Z,-2.50
2023-03-06T19:16:31.379Z,-2.49
2023-03-06T19:19:02.575Z,-2.51
2023-03-06T19:21:35.498Z,-2.53
2023-03-06T19:24:06.398Z,-2.54
2023-03-06T19:26:34.513Z,-2.55
2023-03-06T19:29:41.913Z,-2.59
2023-03-06T19:32:15.603Z,-2.62
2023-03-06T19:35:23.451Z,-2.65
2023-03-06T19:38:18.900Z,-2.68
2023-03-06T19:40:53.710Z,-2.70
2023-03-06T19:43:57.195Z,-2.70
2023-03-06T19:46:37.613Z,-2.71
2023-03-06T19:49:47.758Z,-2.72
2023-03-06T19:55:47.459Z,-2.79
2023-03-06T19:58:33.325Z,-2.82
2023-03-06T20:01:24.473Z,-2.84
2023-03-06T20:04:04.311Z,-2.88
2023-03-06T20:06:54.952Z,-2.92
2023-03-06T20:09:47.521Z,-2.94
2023-03-06T20:17:25.079Z,-2.95
2023-03-06T20:28:21.899Z,-2.97
2023-03-06T20:31:39.599Z,-2.99
2023-03-06T20:34:46.650Z,-3.02
2023-03-06T20:37:29.855Z,-3.05
2023-03-06T20:40:17.876Z,-3.05
2023-03-06T20:42:52.920Z,-3.06
2023-03-06T20:46:44.070Z,-3.07
2023-03-06T20:49:54.310Z,-3.06
2023-03-06T21:04:32.897Z,-3.24
2023-03-06T21:07:43.982Z,-3.32
2023-03-06T21:11:09.221Z,-3.37
2023-03-06T21:18:16.703Z,-3.45
2023-03-06T21:21:11.111Z,-3.46
2023-03-06T21:25:18.286Z,-3.48
2023-03-06T21:28:41.190Z,-3.52
2023-03-06T21:35:09.036Z,-3.66
2023-03-06T21:38:10.858Z,-3.72
2023-03-06T21:40:55.010Z,-3.76
2023-03-06T21:44:33.756Z,-3.79
2023-03-06T21:47:47.414Z,-3.81
2023-03-06T21:50:31.569Z,-3.84
2023-03-06T21:53:20.286Z,-3.87
2023-03-06T21:55:50.505Z,-3.90
2023-03-06T21:58:22.623Z,-3.92
2023-03-06T22:00:53.040Z,-3.96
2023-03-06T22:03:36.260Z,-3.99
2023-03-06T22:06:18.827Z,-3.98
2023-03-06T22:08:52.324Z,-3.96
2023-03-06T22:11:46.508Z,-3.94
2023-03-06T22:14:23.112Z,-3.90
2023-03-06T22:17:00.959Z,-3.87
2023-03-06T22:19:28.552Z,-3.84
2023-03-06T22:22:05.330Z,-3.81
2023-03-06T22:25:04.995Z,-3.78
2023-03-06T22:27:35.273Z,-3.75
2023-03-06T22:30:06.728Z,-3.73
2023-03-06T22:32:37.742Z,-3.72
2023-03-06T22:35:26.958Z,-3.72
2023-03-06T22:37:54.161Z,-3.75
2023-03-06T22:40:24.471Z,-3.75
2023-03-06T22:42:59.253Z,-3.74
2023-03-06T22:45:34.743Z,-3.74
2023-03-06T22:48:11.186Z,-3.74
2023-03-06T22:51:05.034Z,-3.72
2023-03-06T22:53:51.031Z,-3.73
2023-03-06T22:56:30.162Z,-3.74
2023-03-06T22:59:06.814Z,-3.76
2023-03-06T23:01:37.051Z,-3.78
2023-03-06T23:04:52.542Z,-3.81
2023-03-06T23:13:22.188Z,-3.80
2023-03-06T23:17:01.787Z,-3.75
2023-03-06T23:20:29.670Z,-3.67
2023-03-06T23:23:35.521Z,-3.59
2023-03-06T23:27:35.591Z,-3.52
2023-03-06T23:31:42.270Z,-3.44
2023-03-06T23:39:11.690Z,-3.28
2023-03-06T23:42:25.315Z,-3.24
2023-03-06T23:46:09.277Z,-3.20
2023-03-06T23:49:40.446Z,-3.20
2023-03-06T23:52:49.322Z,-3.19
2023-03-06T23:56:22.365Z,-3.15
